Terminal Aerodrome Forecast
Issued by NWS

Home | Current Version | Previous Version | Text Only | Print | Product List | Glossary On
Versions: 1 2 3 4 5 6 7 8 9 10 11 12 13 14 15 16
152
FTUS43 KOAX 282320
TAFCDR
TAF
KCDR 282320Z 2900/2924 21005KT P6SM VCTS BKN100CB
      TEMPO 2900/2901 28017G30KT 4SM -TSRA BKN050 OVC100CB
     FM290300 VRB03KT P6SM SCT100
     FM290900 13005KT 2SM BR BKN002
     FM291400 VRB04KT P6SM SCT004
     FM291700 19009KT P6SM SCT150=

USA.gov is the U.S. government's official web portal to all federal, state and local government web resources and services.